sensor_id;sensor_type;location;lat;lon;timestamp;pressure;altitude;pressure_sealevel;temperature;humidity
1371;BME280;14306;49.942;11.570;2024-03-22T00:00:24;98034.97;;;5.99;100.00
1371;BME280;14306;49.942;11.570;2024-03-22T00:01:56;98033.59;;;5.91;100.00
1371;BME280;14306;49.942;11.570;2024-03-22T00:03:30;98041.38;;;5.93;100.00
1371;BME280;14306;49.942;11.570;2024-03-22T00:05:02;98024.41;;;5.87;100.00
1371;BME280;14306;49.942;11.570;2024-03-22T00:06:34;98029.53;;;5.89;100.00
1371;BME280;14306;49.942;11.570;2024-03-22T00:08:08;98022.84;;;5.91;100.00
1371;BME280;14306;49.942;11.570;2024-03-22T00:09:43;98024.41;;;5.87;100.00
1371;BME280;14306;49.942;11.570;2024-03-22T00:11:16;98008.84;;;5.89;100.00
1371;BME280;14306;49.942;11.570;2024-03-22T00:12:49;98038.69;;;5.93;100.00
1371;BME280;14306;49.942;11.570;2024-03-22T00:14:21;98003.22;;;5.91;100.00
1371;BME280;14306;49.942;11.570;2024-03-22T00:15:55;97998.34;;;5.88;100.00
1371;BME280;14306;49.942;11.570;2024-03-22T00:17:27;97990.75;;;5.80;100.00
1371;BME280;14306;49.942;11.570;2024-03-22T00:19:02;98001.88;;;5.88;100.00
1371;BME280;14306;49.942;11.570;2024-03-22T00:20:35;97994.81;;;5.82;100.00
1371;BME280;14306;49.942;11.570;2024-03-22T00:22:08;97996.44;;;5.83;100.00
1371;BME280;14306;49.942;11.570;2024-03-22T00:23:42;98005.56;;;5.82;100.00
1371;BME280;14306;49.942;11.570;2024-03-22T00:25:16;97999.69;;;5.85;100.00
1371;BME280;14306;49.942;11.570;2024-03-22T00:26:48;98000.19;;;5.82;100.00
1371;BME280;14306;49.942;11.570;2024-03-22T00:28:22;97999.06;;;5.78;100.00
1371;BME280;14306;49.942;11.570;2024-03-22T00:29:54;97998.81;;;5.80;100.00
1371;BME280;14306;49.942;11.570;2024-03-22T00:31:27;98006.28;;;5.73;100.00
1371;BME280;14306;49.942;11.570;2024-03-22T00:33:00;97998.19;;;5.68;100.00
1371;BME280;14306;49.942;11.570;2024-03-22T00:34:33;97991.16;;;5.62;100.00
1371;BME280;14306;49.942;11.570;2024-03-22T00:36:07;97997.34;;;5.62;100.00
1371;BME280;14306;49.942;11.570;2024-03-22T00:37:39;97993.25;;;5.55;100.00
1371;BME280;14306;49.942;11.570;2024-03-22T00:39:11;97985.97;;;5.50;100.00
1371;BME280;14306;49.942;11.570;2024-03-22T00:40:47;97988.69;;;5.55;100.00
1371;BME280;14306;49.942;11.570;2024-03-22T00:42:19;97967.91;;;5.41;100.00
1371;BME280;14306;49.942;11.570;2024-03-22T00:43:52;97978.88;;;5.34;100.00
1371;BME280;14306;49.942;11.570;2024-03-22T00:45:25;97982.34;;;5.35;100.00
1371;BME280;14306;49.942;11.570;2024-03-22T00:46:58;97988.78;;;5.34;100.00
1371;BME280;14306;49.942;11.570;2024-03-22T00:48:31;97981.72;;;5.23;100.00
1371;BME280;14306;49.942;11.570;2024-03-22T00:50:06;97979.00;;;5.18;100.00
1371;BME280;14306;49.942;11.570;2024-03-22T00:51:38;97990.69;;;5.07;100.00
1371;BME280;14306;49.942;11.570;2024-03-22T00:53:11;97990.69;;;5.07;100.00
1371;BME280;14306;49.942;11.570;2024-03-22T00:54:44;97965.53;;;4.86;100.00
1371;BME280;14306;49.942;11.570;2024-03-22T00:56:18;97980.22;;;5.05;100.00
1371;BME280;14306;49.942;11.570;2024-03-22T00:57:50;97981.28;;;5.04;100.00
1371;BME280;14306;49.942;11.570;2024-03-22T00:59:24;97976.38;;;4.96;100.00
1371;BME280;14306;49.942;11.570;2024-03-22T01:00:56;97964.19;;;4.84;100.00
1371;BME280;14306;49.942;11.570;2024-03-22T01:02:28;97972.38;;;4.99;100.00
1371;BME280;14306;49.942;11.570;2024-03-22T01:04:02;97974.81;;;5.00;100.00
1371;BME280;14306;49.942;11.570;2024-03-22T01:05:34;97970.47;;;4.99;100.00
1371;BME280;14306;49.942;11.570;2024-03-22T01:07:07;97968.09;;;4.98;100.00
1371;BME280;14306;49.942;11.570;2024-03-22T01:08:41;97972.59;;;4.92;100.00
1371;BME280;14306;49.942;11.570;2024-03-22T01:10:13;97966.25;;;4.77;100.00
1371;BME280;14306;49.942;11.570;2024-03-22T01:11:47;97971.41;;;4.83;100.00
1371;BME280;14306;49.942;11.570;2024-03-22T01:13:20;97970.88;;;4.81;100.00
1371;BME280;14306;49.942;11.570;2024-03-22T01:14:52;97961.75;;;4.82;100.00
1371;BME280;14306;49.942;11.570;2024-03-22T01:16:24;97957.66;;;4.75;100.00
1371;BME280;14306;49.942;11.570;2024-03-22T01:17:58;97962.72;;;4.71;100.00
1371;BME280;14306;49.942;11.570;2024-03-22T01:19:30;97950.31;;;4.65;100.00
1371;BME280;14306;49.942;11.570;2024-03-22T01:21:03;97961.34;;;4.69;100.00
1371;BME280;14306;49.942;11.570;2024-03-22T01:22:37;97960.72;;;4.62;100.00
1371;BME280;14306;49.942;11.570;2024-03-22T01:24:09;97949.00;;;4.68;100.00
1371;BME280;14306;49.942;11.570;2024-03-22T01:25:42;97960.78;;;4.67;100.00
1371;BME280;14306;49.942;11.570;2024-03-22T01:27:16;97957.53;;;4.65;100.00
1371;BME280;14306;49.942;11.570;2024-03-22T01:28:48;97959.06;;;4.56;100.00
1371;BME280;14306;49.942;11.570;2024-03-22T01:30:21;97959.84;;;4.56;100.00
1371;BME280;14306;49.942;11.570;2024-03-22T01:31:54;97960.06;;;4.50;100.00
1371;BME280;14306;49.942;11.570;2024-03-22T01:33:27;97965.66;;;4.48;100.00
1371;BME280;14306;49.942;11.570;2024-03-22T01:34:59;97950.03;;;4.40;100.00
1371;BME280;14306;49.942;11.570;2024-03-22T01:36:33;97968.50;;;4.37;100.00
1371;BME280;14306;49.942;11.570;2024-03-22T01:38:05;97971.94;;;4.32;100.00
1371;BME280;14306;49.942;11.570;2024-03-22T01:39:38;97963.00;;;4.27;100.00
1371;BME280;14306;49.942;11.570;2024-03-22T01:42:53;97961.41;;;4.26;100.00
1371;BME280;14306;49.942;11.570;2024-03-22T01:44:28;97947.88;;;4.15;100.00
1371;BME280;14306;49.942;11.570;2024-03-22T01:46:00;97959.22;;;4.22;100.00
1371;BME280;14306;49.942;11.570;2024-03-22T01:47:33;97958.78;;;4.31;100.00
1371;BME280;14306;49.942;11.570;2024-03-22T01:49:07;97959.25;;;4.28;100.00
1371;BME280;14306;49.942;11.570;2024-03-22T01:50:40;97962.28;;;4.31;100.00
1371;BME280;14306;49.942;11.570;2024-03-22T01:52:13;97933.84;;;4.08;100.00
1371;BME280;14306;49.942;11.570;2024-03-22T01:53:47;97944.13;;;4.16;100.00
1371;BME280;14306;49.942;11.570;2024-03-22T01:55:19;97937.97;;;4.16;100.00
1371;BME280;14306;49.942;11.570;2024-03-22T01:56:53;97942.50;;;4.15;100.00
1371;BME280;14306;49.942;11.570;2024-03-22T01:58:27;97946.31;;;4.19;100.00
1371;BME280;14306;49.942;11.570;2024-03-22T02:00:00;97944.00;;;4.28;100.00
1371;BME280;14306;49.942;11.570;2024-03-22T02:01:33;97937.81;;;4.28;100.00
1371;BME280;14306;49.942;11.570;2024-03-22T02:03:07;97933.28;;;4.28;100.00
1371;BME280;14306;49.942;11.570;2024-03-22T02:04:39;97933.78;;;4.25;100.00
1371;BME280;14306;49.942;11.570;2024-03-22T02:06:12;97931.91;;;4.26;100.00
1371;BME280;14306;49.942;11.570;2024-03-22T02:07:45;97929.22;;;4.26;100.00
1371;BME280;14306;49.942;11.570;2024-03-22T02:09:17;97925.50;;;4.27;100.00
1371;BME280;14306;49.942;11.570;2024-03-22T02:10:52;97925.28;;;4.33;100.00
1371;BME280;14306;49.942;11.570;2024-03-22T02:12:24;97917.00;;;4.35;100.00
1371;BME280;14306;49.942;11.570;2024-03-22T02:13:58;97911.38;;;4.36;100.00
1371;BME280;14306;49.942;11.570;2024-03-22T02:15:31;97921.66;;;4.44;100.00
1371;BME280;14306;49.942;11.570;2024-03-22T02:17:04;97919.28;;;4.48;100.00
1371;BME280;14306;49.942;11.570;2024-03-22T02:18:36;97907.75;;;4.47;100.00
1371;BME280;14306;49.942;11.570;2024-03-22T02:20:10;97910.22;;;4.54;100.00
1371;BME280;14306;49.942;11.570;2024-03-22T02:21:44;97905.69;;;4.54;100.00
1371;BME280;14306;49.942;11.570;2024-03-22T02:23:16;97903.19;;;4.48;100.00
1371;BME280;14306;49.942;11.570;2024-03-22T02:24:50;97908.66;;;4.58;100.00
1371;BME280;14306;49.942;11.570;2024-03-22T02:26:23;97907.78;;;4.52;100.00
1371;BME280;14306;49.942;11.570;2024-03-22T02:27:55;97910.81;;;4.56;100.00
1371;BME280;14306;49.942;11.570;2024-03-22T02:29:28;97905.31;;;4.46;100.00
1371;BME280;14306;49.942;11.570;2024-03-22T02:31:00;97897.78;;;4.43;100.00
1371;BME280;14306;49.942;11.570;2024-03-22T02:32:33;97890.41;;;4.28;100.00
1371;BME280;14306;49.942;11.570;2024-03-22T02:34:07;97919.44;;;4.36;100.00
1371;BME280;14306;49.942;11.570;2024-03-22T02:35:39;97904.66;;;4.34;100.00
1371;BME280;14306;49.942;11.570;2024-03-22T02:37:11;97896.88;;;4.32;100.00
1371;BME280;14306;49.942;11.570;2024-03-22T02:38:44;97893.13;;;4.33;100.00
1371;BME280;14306;49.942;11.570;2024-03-22T02:40:18;97901.94;;;4.29;100.00
1371;BME280;14306;49.942;11.570;2024-03-22T02:41:50;97902.06;;;4.17;100.00
1371;BME280;14306;49.942;11.570;2024-03-22T02:43:24;97902.63;;;4.19;100.00
1371;BME280;14306;49.942;11.570;2024-03-22T02:44:56;97903.03;;;4.11;100.00
1371;BME280;14306;49.942;11.570;2024-03-22T02:46:30;97895.34;;;3.93;100.00
1371;BME280;14306;49.942;11.570;2024-03-22T02:48:03;97892.78;;;3.81;100.00
1371;BME280;14306;49.942;11.570;2024-03-22T02:49:35;97893.34;;;3.83;100.00
1371;BME280;14306;49.942;11.570;2024-03-22T02:51:09;97891.22;;;3.85;100.00
1371;BME280;14306;49.942;11.570;2024-03-22T02:52:41;97888.50;;;3.80;100.00
1371;BME280;14306;49.942;11.570;2024-03-22T02:54:14;97891.16;;;3.80;100.00
1371;BME280;14306;49.942;11.570;2024-03-22T02:55:51;97899.41;;;3.74;100.00
1371;BME280;14306;49.942;11.570;2024-03-22T02:57:23;97893.53;;;3.77;100.00
1371;BME280;14306;49.942;11.570;2024-03-22T02:58:56;97892.41;;;3.73;100.00
1371;BME280;14306;49.942;11.570;2024-03-22T03:00:29;97877.88;;;3.69;100.00
1371;BME280;14306;49.942;11.570;2024-03-22T03:02:01;97885.31;;;3.62;100.00
1371;BME280;14306;49.942;11.570;2024-03-22T03:03:34;97887.47;;;3.65;100.00
1371;BME280;14306;49.942;11.570;2024-03-22T03:05:08;97883.66;;;3.61;100.00
1371;BME280;14306;49.942;11.570;2024-03-22T03:06:40;97879.88;;;3.57;100.00
1371;BME280;14306;49.942;11.570;2024-03-22T03:08:12;97886.13;;;3.46;100.00
1371;BME280;14306;49.942;11.570;2024-03-22T03:09:45;97883.75;;;3.44;100.00
1371;BME280;14306;49.942;11.570;2024-03-22T03:11:19;97878.09;;;3.46;100.00
1371;BME280;14306;49.942;11.570;2024-03-22T03:12:54;97882.34;;;3.42;100.00
1371;BME280;14306;49.942;11.570;2024-03-22T03:14:26;97871.16;;;3.45;100.00
1371;BME280;14306;49.942;11.570;2024-03-22T03:15:59;97875.88;;;3.59;100.00
1371;BME280;14306;49.942;11.570;2024-03-22T03:17:31;97862.09;;;3.67;100.00
1371;BME280;14306;49.942;11.570;2024-03-22T03:19:03;97868.25;;;3.68;100.00
1371;BME280;14306;49.942;11.570;2024-03-22T03:20:37;97870.19;;;3.72;100.00
1371;BME280;14306;49.942;11.570;2024-03-22T03:22:09;97871.78;;;3.73;100.00
1371;BME280;14306;49.942;11.570;2024-03-22T03:23:41;97862.69;;;3.74;100.00
1371;BME280;14306;49.942;11.570;2024-03-22T03:25:15;97873.66;;;3.73;100.00
1371;BME280;14306;49.942;11.570;2024-03-22T03:26:48;97865.47;;;3.79;100.00
1371;BME280;14306;49.942;11.570;2024-03-22T03:28:20;97869.53;;;3.87;100.00
1371;BME280;14306;49.942;11.570;2024-03-22T03:29:54;97872.59;;;3.95;100.00
1371;BME280;14306;49.942;11.570;2024-03-22T03:31:26;97871.03;;;3.99;100.00
1371;BME280;14306;49.942;11.570;2024-03-22T03:32:58;97870.84;;;4.06;100.00
1371;BME280;14306;49.942;11.570;2024-03-22T03:34:31;97869.59;;;4.13;100.00
1371;BME280;14306;49.942;11.570;2024-03-22T03:36:04;97863.47;;;4.18;100.00
1371;BME280;14306;49.942;11.570;2024-03-22T03:37:36;97868.09;;;4.22;100.00
1371;BME280;14306;49.942;11.570;2024-03-22T03:39:09;97870.28;;;4.26;100.00
1371;BME280;14306;49.942;11.570;2024-03-22T03:40:42;97868.38;;;4.26;100.00
1371;BME280;14306;49.942;11.570;2024-03-22T03:42:15;97873.84;;;4.36;100.00
1371;BME280;14306;49.942;11.570;2024-03-22T03:43:49;97862.63;;;4.39;100.00
1371;BME280;14306;49.942;11.570;2024-03-22T03:45:21;97862.66;;;4.44;100.00
1371;BME280;14306;49.942;11.570;2024-03-22T03:46:53;97854.63;;;4.44;100.00
1371;BME280;14306;49.942;11.570;2024-03-22T03:48:26;97851.41;;;4.42;100.00
1371;BME280;14306;49.942;11.570;2024-03-22T03:49:59;97859.38;;;4.37;100.00
1371;BME280;14306;49.942;11.570;2024-03-22T03:51:31;97851.31;;;4.32;100.00
1371;BME280;14306;49.942;11.570;2024-03-22T03:53:04;97839.72;;;4.27;100.00
1371;BME280;14306;49.942;11.570;2024-03-22T03:54:37;97847.25;;;4.30;100.00
1371;BME280;14306;49.942;11.570;2024-03-22T03:56:10;97853.41;;;4.30;100.00
1371;BME280;14306;49.942;11.570;2024-03-22T03:57:44;97859.56;;;4.26;100.00
1371;BME280;14306;49.942;11.570;2024-03-22T03:59:16;97862.56;;;4.34;100.00
1371;BME280;14306;49.942;11.570;2024-03-22T04:00:50;97863.09;;;4.31;100.00
1371;BME280;14306;49.942;11.570;2024-03-22T04:02:22;97863.34;;;4.30;100.00
1371;BME280;14306;49.942;11.570;2024-03-22T04:03:56;97870.59;;;4.34;100.00
1371;BME280;14306;49.942;11.570;2024-03-22T04:05:28;97867.63;;;4.31;100.00
1371;BME280;14306;49.942;11.570;2024-03-22T04:07:01;97868.69;;;4.30;100.00
1371;BME280;14306;49.942;11.570;2024-03-22T04:08:34;97866.81;;;4.30;100.00
1371;BME280;14306;49.942;11.570;2024-03-22T04:10:08;97864.69;;;4.32;100.00
1371;BME280;14306;49.942;11.570;2024-03-22T07:26:55;97822.03;;;8.74;100.00
1371;BME280;14306;49.942;11.570;2024-03-22T07:28:28;97829.09;;;8.70;100.00
1371;BME280;14306;49.942;11.570;2024-03-22T07:30:01;97839.34;;;8.68;100.00
1371;BME280;14306;49.942;11.570;2024-03-22T07:31:35;97841.50;;;8.71;100.00
1371;BME280;14306;49.942;11.570;2024-03-22T07:33:07;97843.91;;;8.73;100.00
1371;BME280;14306;49.942;11.570;2024-03-22T07:34:41;97840.41;;;8.72;100.00
1371;BME280;14306;49.942;11.570;2024-03-22T07:36:16;97851.09;;;8.87;100.00
1371;BME280;14306;49.942;11.570;2024-03-22T07:37:49;97858.63;;;9.24;100.00
1371;BME280;14306;49.942;11.570;2024-03-22T07:39:22;97854.66;;;9.16;100.00
1371;BME280;14306;49.942;11.570;2024-03-22T07:40:55;97863.44;;;9.32;100.00
1371;BME280;14306;49.942;11.570;2024-03-22T07:42:30;97862.88;;;9.01;100.00
1371;BME280;14306;49.942;11.570;2024-03-22T07:44:02;97865.13;;;9.51;100.00
1371;BME280;14306;49.942;11.570;2024-03-22T07:45:37;97864.91;;;9.71;100.00
1371;BME280;14306;49.942;11.570;2024-03-22T07:47:10;97873.50;;;9.78;100.00
1371;BME280;14306;49.942;11.570;2024-03-22T07:48:43;97887.47;;;9.85;100.00
1371;BME280;14306;49.942;11.570;2024-03-22T07:50:16;97888.13;;;10.01;100.00
1371;BME280;14306;49.942;11.570;2024-03-22T07:51:49;97889.06;;;9.91;100.00
1371;BME280;14306;49.942;11.570;2024-03-22T07:53:22;97898.22;;;10.19;100.00
1371;BME280;14306;49.942;11.570;2024-03-22T07:54:55;97903.13;;;10.17;100.00
1371;BME280;14306;49.942;11.570;2024-03-22T07:56:28;97902.16;;;9.79;100.00
1371;BME280;14306;49.942;11.570;2024-03-22T07:58:02;97913.78;;;10.08;100.00
1371;BME280;14306;49.942;11.570;2024-03-22T07:59:35;97913.38;;;10.62;100.00
1371;BME280;14306;49.942;11.570;2024-03-22T08:01:08;97914.69;;;10.83;100.00
1371;BME280;14306;49.942;11.570;2024-03-22T08:02:41;97928.31;;;11.15;100.00
1371;BME280;14306;49.942;11.570;2024-03-22T08:04:13;97927.31;;;10.74;100.00
1371;BME280;14306;49.942;11.570;2024-03-22T08:05:47;97922.31;;;10.99;100.00
1371;BME280;14306;49.942;11.570;2024-03-22T08:07:19;97925.38;;;11.11;100.00
1371;BME280;14306;49.942;11.570;2024-03-22T08:08:54;97923.81;;;11.42;100.00
1371;BME280;14306;49.942;11.570;2024-03-22T08:10:26;97913.16;;;11.64;100.00
1371;BME280;14306;49.942;11.570;2024-03-22T08:12:00;97929.22;;;12.07;100.00
1371;BME280;14306;49.942;11.570;2024-03-22T08:13:34;97926.06;;;12.00;100.00
1371;BME280;14306;49.942;11.570;2024-03-22T08:15:08;97925.69;;;12.33;100.00
1371;BME280;14306;49.942;11.570;2024-03-22T08:16:41;97931.94;;;12.20;100.00
1371;BME280;14306;49.942;11.570;2024-03-22T08:18:14;97932.69;;;12.88;100.00
1371;BME280;14306;49.942;11.570;2024-03-22T08:19:48;97939.78;;;12.49;100.00
1371;BME280;14306;49.942;11.570;2024-03-22T08:21:21;97922.97;;;12.47;100.00
1371;BME280;14306;49.942;11.570;2024-03-22T08:22:53;97934.34;;;12.35;100.00
1371;BME280;14306;49.942;11.570;2024-03-22T08:24:27;97926.91;;;12.27;100.00
1371;BME280;14306;49.942;11.570;2024-03-22T08:25:59;97920.94;;;12.52;100.00
1371;BME280;14306;49.942;11.570;2024-03-22T08:27:32;97931.19;;;12.69;100.00
1371;BME280;14306;49.942;11.570;2024-03-22T08:29:07;97919.41;;;13.22;100.00
1371;BME280;14306;49.942;11.570;2024-03-22T08:30:40;97924.16;;;13.61;100.00
1371;BME280;14306;49.942;11.570;2024-03-22T08:32:14;97928.00;;;13.82;100.00
1371;BME280;14306;49.942;11.570;2024-03-22T08:33:46;97932.03;;;13.40;100.00
1371;BME280;14306;49.942;11.570;2024-03-22T08:35:19;97937.91;;;12.98;100.00
1371;BME280;14306;49.942;11.570;2024-03-22T08:36:52;97941.44;;;13.34;100.00
1371;BME280;14306;49.942;11.570;2024-03-22T08:38:25;97930.94;;;13.41;100.00
1371;BME280;14306;49.942;11.570;2024-03-22T08:39:58;97937.00;;;13.60;100.00
1371;BME280;14306;49.942;11.570;2024-03-22T08:41:31;97943.28;;;13.69;100.00
1371;BME280;14306;49.942;11.570;2024-03-22T08:43:05;97936.22;;;14.21;100.00
1371;BME280;14306;49.942;11.570;2024-03-22T08:44:40;97939.22;;;14.50;100.00
1371;BME280;14306;49.942;11.570;2024-03-22T08:46:14;97947.50;;;14.84;100.00
1371;BME280;14306;49.942;11.570;2024-03-22T08:47:47;97948.16;;;14.81;100.00
1371;BME280;14306;49.942;11.570;2024-03-22T08:49:20;97951.66;;;16.09;100.00
1371;BME280;14306;49.942;11.570;2024-03-22T08:50:53;97937.06;;;17.30;100.00
1371;BME280;14306;49.942;11.570;2024-03-22T08:52:25;97935.91;;;18.49;100.00
1371;BME280;14306;49.942;11.570;2024-03-22T08:53:58;97937.63;;;19.81;100.00
1371;BME280;14306;49.942;11.570;2024-03-22T08:55:32;97932.88;;;20.67;100.00
1371;BME280;14306;49.942;11.570;2024-03-22T08:57:05;97935.81;;;20.43;94.08
1371;BME280;14306;49.942;11.570;2024-03-22T08:58:38;97943.56;;;22.97;100.00
1371;BME280;14306;49.942;11.570;2024-03-22T09:00:14;97974.56;;;24.24;83.52
1371;BME280;14306;49.942;11.570;2024-03-22T09:01:47;97964.22;;;24.18;74.62
1371;BME280;14306;49.942;11.570;2024-03-22T09:03:20;97983.56;;;24.87;56.34
1371;BME280;14306;49.942;11.570;2024-03-22T09:04:54;97961.38;;;23.81;68.97
1371;BME280;14306;49.942;11.570;2024-03-22T09:06:28;97930.88;;;22.70;69.75
1371;BME280;14306;49.942;11.570;2024-03-22T09:08:02;97933.72;;;22.32;67.58
1371;BME280;14306;49.942;11.570;2024-03-22T09:09:35;97913.09;;;21.12;81.04
1371;BME280;14306;49.942;11.570;2024-03-22T09:11:08;97898.53;;;20.46;75.34
1371;BME280;14306;49.942;11.570;2024-03-22T09:12:42;97888.19;;;19.96;77.55
1371;BME280;14306;49.942;11.570;2024-03-22T09:14:14;97881.84;;;19.25;83.24
1371;BME280;14306;49.942;11.570;2024-03-22T09:15:49;97876.84;;;19.03;91.87
1371;BME280;14306;49.942;11.570;2024-03-22T09:17:30;97875.44;;;18.57;100.00
1371;BME280;14306;49.942;11.570;2024-03-22T09:19:02;97873.25;;;18.51;90.92
1371;BME280;14306;49.942;11.570;2024-03-22T09:20:36;97879.97;;;18.29;95.49
1371;BME280;14306;49.942;11.570;2024-03-22T09:22:09;97872.88;;;18.28;91.45
1371;BME280;14306;49.942;11.570;2024-03-22T09:23:42;97867.38;;;18.28;92.38
1371;BME280;14306;49.942;11.570;2024-03-22T09:25:16;97865.56;;;18.32;89.65
1371;BME280;14306;49.942;11.570;2024-03-22T09:26:49;97863.81;;;18.04;90.86
1371;BME280;14306;49.942;11.570;2024-03-22T09:28:21;97863.69;;;17.88;91.75
1371;BME280;14306;49.942;11.570;2024-03-22T09:29:55;97854.56;;;17.84;99.87
1371;BME280;14306;49.942;11.570;2024-03-22T09:31:29;97842.69;;;17.92;99.45
1371;BME280;14306;49.942;11.570;2024-03-22T09:33:03;97862.53;;;17.89;95.10
1371;BME280;14306;49.942;11.570;2024-03-22T09:34:35;97863.69;;;17.88;95.49
1371;BME280;14306;49.942;11.570;2024-03-22T09:36:08;97854.66;;;17.88;96.45
1371;BME280;14306;49.942;11.570;2024-03-22T09:37:42;97860.34;;;18.39;89.69
1371;BME280;14306;49.942;11.570;2024-03-22T09:39:14;97830.84;;;17.56;92.06
1371;BME280;14306;49.942;11.570;2024-03-22T09:40:48;97838.47;;;17.95;97.05
1371;BME280;14306;49.942;11.570;2024-03-22T09:42:22;97841.84;;;18.48;93.50
1371;BME280;14306;49.942;11.570;2024-03-22T09:43:58;97863.72;;;18.84;86.15
1371;BME280;14306;49.942;11.570;2024-03-22T09:45:32;97851.84;;;18.20;88.09
1371;BME280;14306;49.942;11.570;2024-03-22T09:47:06;97850.03;;;18.36;86.03
1371;BME280;14306;49.942;11.570;2024-03-22T09:48:41;97850.41;;;18.47;86.88
1371;BME280;14306;49.942;11.570;2024-03-22T09:50:15;97861.25;;;18.67;86.42
1371;BME280;14306;49.942;11.570;2024-03-22T09:51:48;97852.44;;;18.62;85.20
1371;BME280;14306;49.942;11.570;2024-03-22T09:53:25;97832.47;;;18.37;84.72
1371;BME280;14306;49.942;11.570;2024-03-22T09:54:59;97860.41;;;18.79;85.84
1371;BME280;14306;49.942;11.570;2024-03-22T09:56:32;97859.63;;;19.30;81.61
1371;BME280;14306;49.942;11.570;2024-03-22T09:58:06;97861.13;;;19.15;79.00
1371;BME280;14306;49.942;11.570;2024-03-22T09:59:39;97862.63;;;19.25;80.03
1371;BME280;14306;49.942;11.570;2024-03-22T10:01:12;97857.00;;;19.22;78.77
1371;BME280;14306;49.942;11.570;2024-03-22T10:02:49;97855.75;;;19.19;76.13
1371;BME280;14306;49.942;11.570;2024-03-22T10:04:22;97855.91;;;19.50;79.39
1371;BME280;14306;49.942;11.570;2024-03-22T10:05:54;97871.28;;;20.10;74.74
1371;BME280;14306;49.942;11.570;2024-03-22T10:07:28;97862.63;;;19.96;76.00
1371;BME280;14306;49.942;11.570;2024-03-22T10:09:02;97868.63;;;20.29;71.97
1371;BME280;14306;49.942;11.570;2024-03-22T10:10:37;97853.63;;;19.68;76.93
1371;BME280;14306;49.942;11.570;2024-03-22T10:12:11;97847.31;;;19.67;77.69
1371;BME280;14306;49.942;11.570;2024-03-22T10:13:43;97852.88;;;19.98;72.05
1371;BME280;14306;49.942;11.570;2024-03-22T10:15:17;97850.53;;;19.85;72.58
1371;BME280;14306;49.942;11.570;2024-03-22T10:16:51;97812.34;;;19.52;71.24
1371;BME280;14306;49.942;11.570;2024-03-22T10:18:27;97851.00;;;19.87;72.41
1371;BME280;14306;49.942;11.570;2024-03-22T10:20:02;97860.72;;;20.27;70.25
1371;BME280;14306;49.942;11.570;2024-03-22T10:21:35;97855.66;;;20.14;69.91
1371;BME280;14306;49.942;11.570;2024-03-22T10:23:08;97869.94;;;21.16;67.12
1371;BME280;14306;49.942;11.570;2024-03-22T10:24:40;97865.97;;;20.98;62.00
1371;BME280;14306;49.942;11.570;2024-03-22T10:26:14;97879.88;;;21.77;62.09
1371;BME280;14306;49.942;11.570;2024-03-22T10:27:47;97900.00;;;22.65;58.05
1371;BME280;14306;49.942;11.570;2024-03-22T10:29:21;97880.91;;;22.11;57.29
1371;BME280;14306;49.942;11.570;2024-03-22T10:30:54;97862.16;;;21.40;57.60
1371;BME280;14306;49.942;11.570;2024-03-22T10:32:27;97857.75;;;21.36;56.96
1371;BME280;14306;49.942;11.570;2024-03-22T10:34:03;97876.72;;;21.98;58.56
1371;BME280;14306;49.942;11.570;2024-03-22T10:35:36;97858.97;;;21.38;59.13
1371;BME280;14306;49.942;11.570;2024-03-22T10:37:14;97868.63;;;22.08;56.02
1371;BME280;14306;49.942;11.570;2024-03-22T10:38:49;97871.09;;;22.58;53.88
1371;BME280;14306;49.942;11.570;2024-03-22T10:40:24;97862.41;;;22.57;53.05
1371;BME280;14306;49.942;11.570;2024-03-22T10:41:59;97849.25;;;22.27;54.17
1371;BME280;14306;49.942;11.570;2024-03-22T10:43:31;97858.81;;;22.56;52.81
1371;BME280;14306;49.942;11.570;2024-03-22T10:45:05;97871.91;;;23.11;50.86
1371;BME280;14306;49.942;11.570;2024-03-22T10:46:44;97855.69;;;22.58;52.39
1371;BME280;14306;49.942;11.570;2024-03-22T10:48:17;97831.47;;;22.47;52.41
1371;BME280;14306;49.942;11.570;2024-03-22T10:49:55;97847.75;;;22.52;50.89
1371;BME280;14306;49.942;11.570;2024-03-22T10:51:34;97838.22;;;22.50;50.86
1371;BME280;14306;49.942;11.570;2024-03-22T10:53:11;97846.72;;;22.19;53.81
1371;BME280;14306;49.942;11.570;2024-03-22T10:54:47;97840.84;;;22.43;53.08
1371;BME280;14306;49.942;11.570;2024-03-22T10:56:21;97842.38;;;22.63;51.60
1371;BME280;14306;49.942;11.570;2024-03-22T10:57:55;97827.59;;;22.07;51.38
1371;BME280;14306;49.942;11.570;2024-03-22T10:59:33;97816.88;;;22.02;51.58
1371;BME280;14306;49.942;11.570;2024-03-22T11:01:21;97806.41;;;21.69;52.42
1371;BME280;14306;49.942;11.570;2024-03-22T11:02:54;97787.13;;;21.50;53.64
1371;BME280;14306;49.942;11.570;2024-03-22T11:04:30;97807.81;;;21.79;52.55
1371;BME280;14306;49.942;11.570;2024-03-22T11:06:07;97808.97;;;21.78;53.64
1371;BME280;14306;49.942;11.570;2024-03-22T11:07:40;97791.75;;;21.65;54.08
1371;BME280;14306;49.942;11.570;2024-03-22T11:09:18;97772.16;;;21.10;55.74
1371;BME280;14306;49.942;11.570;2024-03-22T11:10:53;97783.91;;;21.26;55.67
1371;BME280;14306;49.942;11.570;2024-03-22T11:12:26;97770.72;;;21.16;56.46
1371;BME280;14306;49.942;11.570;2024-03-22T11:14:00;97771.50;;;21.35;55.57
1371;BME280;14306;49.942;11.570;2024-03-22T11:15:34;97777.16;;;21.65;54.84
1371;BME280;14306;49.942;11.570;2024-03-22T11:17:08;97771.22;;;21.63;54.35
1371;BME280;14306;49.942;11.570;2024-03-22T11:18:40;97777.56;;;22.08;52.65
1371;BME280;14306;49.942;11.570;2024-03-22T11:20:13;97752.38;;;21.46;52.37
1371;BME280;14306;49.942;11.570;2024-03-22T11:21:48;97759.53;;;21.69;54.30
1371;BME280;14306;49.942;11.570;2024-03-22T11:23:21;97770.28;;;21.97;52.64
1371;BME280;14306;49.942;11.570;2024-03-22T11:24:54;97770.69;;;22.21;52.11
1371;BME280;14306;49.942;11.570;2024-03-22T11:26:27;97764.69;;;22.16;51.96
1371;BME280;14306;49.942;11.570;2024-03-22T11:28:00;97757.16;;;22.13;50.56
1371;BME280;14306;49.942;11.570;2024-03-22T11:29:33;97748.84;;;21.68;51.41
1371;BME280;14306;49.942;11.570;2024-03-22T11:31:07;97759.47;;;22.11;50.27